Terminal Aerodrome Forecast
Issued by NWS Wilmington, OH

Current Version | Previous Version | Graphics & Text | Print | Product List | Glossary On
Versions: 1 2 3 4 5 6 7 8 9 10 11 12 13 14 15 16 17 18 19 20 21 22 23
056
FTUS41 KILN 101742
TAFCMH
TAF
KCMH 101742Z 1018/1118 25010KT P6SM OVC025
     FM110000 22006KT P6SM BKN080
     FM110400 16006KT P6SM VCSH OVC040
     FM110700 14005KT 4SM -SN OVC025
     FM111100 15008KT P6SM OVC040=

USA.gov is the U.S. government's official web portal to all federal, state and local government web resources and services.